createdAt,value
2023-03-12T00:02:02.454Z,7.53
2023-03-12T00:04:28.936Z,6.63
2023-03-12T00:06:55.445Z,5.47
2023-03-12T00:09:21.899Z,9.90
2023-03-12T00:11:48.396Z,6.53
2023-03-12T00:14:15.051Z,9.30
2023-03-12T00:16:43.344Z,6.60
2023-03-12T00:19:15.836Z,6.10
2023-03-12T00:21:43.096Z,4.97
2023-03-12T00:24:10.036Z,5.97
2023-03-12T00:26:36.556Z,10.47
2023-03-12T00:29:05.104Z,7.60
2023-03-12T00:31:33.179Z,9.83
2023-03-12T00:34:01.704Z,7.20
2023-03-12T00:36:30.309Z,7.00
2023-03-12T00:38:57.927Z,7.03
2023-03-12T00:41:25.730Z,9.33
2023-03-12T00:43:53.017Z,9.03
2023-03-12T00:46:21.163Z,8.70
2023-03-12T00:48:47.683Z,4.07
2023-03-12T00:51:14.542Z,4.87
2023-03-12T00:53:41.202Z,6.07
2023-03-12T00:56:08.118Z,7.10
2023-03-12T00:58:34.596Z,5.23
2023-03-12T01:01:01.124Z,5.80
2023-03-12T01:03:27.861Z,9.80
2023-03-12T01:05:57.309Z,8.63
2023-03-12T01:08:24.479Z,5.10
2023-03-12T01:10:51.299Z,6.73
2023-03-12T01:13:17.854Z,7.77
2023-03-12T01:15:44.308Z,11.87
2023-03-12T01:18:10.906Z,8.07
2023-03-12T01:20:37.484Z,5.60
2023-03-12T01:23:04.057Z,7.57
2023-03-12T01:25:30.567Z,7.07
2023-03-12T01:27:57.039Z,6.67
2023-03-12T01:30:23.768Z,8.87
2023-03-12T01:32:51.830Z,3.70
2023-03-12T01:35:18.524Z,8.53
2023-03-12T01:37:45.381Z,6.70
2023-03-12T01:40:15.935Z,6.77
2023-03-12T01:42:42.401Z,6.17
2023-03-12T01:45:46.666Z,8.87
2023-03-12T01:48:13.143Z,8.00
2023-03-12T01:50:39.668Z,10.17
2023-03-12T01:53:06.153Z,5.53
2023-03-12T01:55:32.674Z,5.97
2023-03-12T01:57:59.190Z,6.63
2023-03-12T02:00:27.262Z,4.40
2023-03-12T02:02:59.490Z,4.10
2023-03-12T02:05:33.983Z,7.20
2023-03-12T02:08:00.882Z,5.50
2023-03-12T02:10:27.379Z,4.10
2023-03-12T02:12:54.171Z,6.43
2023-03-12T02:15:21.035Z,7.77
2023-03-12T02:17:47.531Z,10.30
2023-03-12T02:20:37.982Z,4.20
2023-03-12T02:23:17.241Z,5.40
2023-03-12T02:25:48.362Z,4.97
2023-03-12T02:28:16.605Z,5.07
2023-03-12T02:30:46.772Z,9.23
2023-03-12T02:33:15.276Z,6.10
2023-03-12T02:35:42.397Z,7.73
2023-03-12T02:38:36.493Z,9.30
2023-03-12T02:41:11.010Z,8.50
2023-03-12T02:43:38.084Z,5.53
2023-03-12T02:46:04.800Z,6.47
2023-03-12T02:48:31.316Z,6.33
2023-03-12T02:50:57.778Z,7.30
2023-03-12T02:53:24.324Z,8.17
2023-03-12T02:55:50.834Z,6.67
2023-03-12T02:58:17.311Z,5.13
2023-03-12T03:00:43.810Z,7.63
2023-03-12T03:03:10.401Z,5.73
2023-03-12T03:05:37.248Z,5.77
2023-03-12T03:08:04.529Z,6.67
2023-03-12T03:10:31.185Z,4.73
2023-03-12T03:12:57.818Z,5.60
2023-03-12T03:15:24.474Z,6.60
2023-03-12T03:17:50.938Z,9.20
2023-03-12T03:20:17.473Z,5.83
2023-03-12T03:22:43.956Z,8.77
2023-03-12T03:25:10.816Z,3.13
2023-03-12T03:27:37.342Z,6.50
2023-03-12T03:30:04.722Z,6.93
2023-03-12T03:32:31.318Z,6.70
2023-03-12T03:34:57.847Z,6.70
2023-03-12T03:37:24.301Z,9.47
2023-03-12T03:39:50.763Z,10.17
2023-03-12T03:42:17.212Z,9.10
2023-03-12T03:44:43.690Z,8.03
2023-03-12T03:47:10.154Z,7.23
2023-03-12T03:49:36.633Z,10.57
2023-03-12T03:52:03.122Z,9.93
2023-03-12T03:54:31.161Z,9.63
2023-03-12T03:56:57.662Z,9.13
2023-03-12T03:59:24.383Z,10.60
2023-03-12T04:01:50.846Z,11.63
2023-03-12T04:04:17.329Z,11.93
2023-03-12T04:06:43.815Z,12.70
2023-03-12T04:09:10.655Z,13.00
2023-03-12T04:11:37.125Z,11.07
2023-03-12T04:14:03.825Z,11.33
2023-03-12T04:16:30.281Z,14.73
2023-03-12T04:18:56.729Z,12.97
2023-03-12T04:21:23.358Z,12.43
2023-03-12T04:23:49.875Z,22.17
2023-03-12T04:26:17.434Z,31.93
2023-03-12T04:28:43.937Z,96.80
2023-03-12T04:31:11.987Z,117.70
2023-03-12T04:33:40.020Z,69.10
2023-03-12T04:36:07.398Z,64.37
2023-03-12T04:38:33.916Z,64.40
2023-03-12T04:41:07.321Z,42.40
2023-03-12T04:43:33.965Z,131.90
2023-03-12T04:46:00.982Z,80.40
2023-03-12T04:48:27.510Z,82.43
2023-03-12T04:50:54.563Z,59.47
2023-03-12T04:53:21.735Z,90.10
2023-03-12T04:55:48.288Z,85.57
2023-03-12T04:58:14.806Z,72.90
2023-03-12T05:00:41.794Z,57.17
2023-03-12T05:03:08.794Z,50.63
2023-03-12T05:05:35.966Z,55.97
2023-03-12T05:08:03.241Z,67.37
2023-03-12T05:10:29.778Z,83.47
2023-03-12T05:12:56.311Z,59.33
2023-03-12T05:15:22.926Z,81.80
2023-03-12T05:17:49.426Z,57.77
2023-03-12T05:20:17.679Z,48.70
2023-03-12T05:22:44.172Z,52.00
2023-03-12T05:25:11.234Z,44.67
2023-03-12T05:27:38.088Z,56.20
2023-03-12T05:30:06.158Z,53.13
2023-03-12T05:32:33.368Z,45.30
2023-03-12T05:34:59.871Z,55.73
2023-03-12T05:37:26.312Z,56.27
2023-03-12T05:39:54.525Z,52.10
2023-03-12T05:42:20.979Z,48.37
2023-03-12T05:44:47.528Z,39.33
2023-03-12T05:47:14.021Z,37.90
2023-03-12T05:49:40.483Z,39.83
2023-03-12T05:52:07.083Z,34.90
2023-03-12T05:54:33.538Z,46.40
2023-03-12T05:57:00.526Z,39.83
2023-03-12T05:59:27.043Z,38.53
2023-03-12T06:01:53.619Z,45.87
2023-03-12T06:04:20.149Z,42.90
2023-03-12T06:06:47.053Z,38.43
2023-03-12T06:09:13.532Z,41.80
2023-03-12T06:11:40.040Z,56.53
2023-03-12T06:14:06.537Z,41.23
2023-03-12T06:16:33.119Z,57.90
2023-03-12T06:19:02.202Z,49.23
2023-03-12T06:21:31.467Z,42.80
2023-03-12T06:23:58.915Z,39.23
2023-03-12T06:26:25.960Z,38.07
2023-03-12T06:28:53.040Z,46.97
2023-03-12T06:31:22.716Z,51.80
2023-03-12T06:33:49.629Z,42.33
2023-03-12T06:36:16.395Z,43.87
2023-03-12T06:38:42.998Z,38.53
2023-03-12T06:41:14.715Z,38.83
2023-03-12T06:43:41.704Z,48.80
2023-03-12T06:46:09.780Z,44.07
2023-03-12T06:48:36.922Z,42.40
2023-03-12T06:51:04.782Z,45.47
2023-03-12T06:53:31.774Z,50.70
2023-03-12T06:55:58.748Z,40.37
2023-03-12T06:58:25.383Z,45.50
2023-03-12T07:00:52.574Z,41.83
2023-03-12T07:03:19.278Z,50.90
2023-03-12T07:05:47.454Z,47.80
2023-03-12T07:08:13.977Z,49.80
2023-03-12T07:10:40.534Z,46.60
2023-03-12T07:13:07.381Z,44.97
2023-03-12T07:15:34.327Z,44.77
2023-03-12T07:18:03.769Z,40.43
2023-03-12T07:20:30.220Z,38.77
2023-03-12T07:22:56.741Z,38.53
2023-03-12T07:25:23.251Z,39.63
2023-03-12T07:27:49.715Z,31.90
2023-03-12T07:30:16.386Z,40.13
2023-03-12T07:32:43.015Z,39.47
2023-03-12T07:35:09.962Z,39.80
2023-03-12T07:37:36.456Z,44.97
2023-03-12T07:40:07.329Z,37.57
2023-03-12T07:42:34.488Z,31.03
2023-03-12T07:45:01.006Z,32.03
2023-03-12T07:47:27.560Z,37.87
2023-03-12T07:49:54.340Z,39.30
2023-03-12T07:52:21.058Z,37.83
2023-03-12T07:54:47.951Z,36.43
2023-03-12T07:57:14.678Z,41.60
2023-03-12T07:59:41.215Z,42.33
2023-03-12T08:02:10.513Z,41.00
2023-03-12T08:04:37.283Z,41.23
2023-03-12T08:07:04.154Z,36.10
2023-03-12T08:09:30.639Z,34.07
2023-03-12T08:11:57.124Z,33.90
2023-03-12T08:14:23.633Z,33.30
2023-03-12T08:16:50.176Z,32.73
2023-03-12T08:19:16.972Z,37.43
2023-03-12T08:21:43.987Z,32.80
2023-03-12T08:24:10.559Z,35.40
2023-03-12T08:26:37.028Z,33.87
2023-03-12T08:29:03.869Z,35.00
2023-03-12T08:31:30.355Z,32.30
2023-03-12T08:33:56.823Z,29.70
2023-03-12T08:36:23.264Z,33.37
2023-03-12T08:38:49.746Z,29.70
2023-03-12T08:41:16.162Z,29.47
2023-03-12T08:43:42.643Z,28.00
2023-03-12T08:46:11.807Z,25.33
2023-03-12T08:48:39.127Z,26.87
2023-03-12T08:51:07.536Z,26.53
2023-03-12T08:53:35.745Z,28.10
2023-03-12T08:56:03.432Z,24.20
2023-03-12T08:58:30.700Z,24.63
2023-03-12T09:00:58.134Z,22.90
2023-03-12T09:03:26.032Z,24.73
2023-03-12T09:06:16.866Z,23.43
2023-03-12T09:08:44.231Z,21.53
2023-03-12T09:11:12.104Z,21.40
2023-03-12T09:13:59.768Z,19.13
2023-03-12T09:16:26.519Z,18.60
2023-03-12T09:18:53.566Z,17.10
2023-03-12T09:21:20.117Z,16.93
2023-03-12T09:23:47.236Z,18.50
2023-03-12T09:26:14.003Z,15.67
2023-03-12T09:28:40.549Z,13.80
2023-03-12T09:31:07.031Z,14.47
2023-03-12T09:33:36.404Z,13.50
2023-03-12T09:36:03.491Z,14.97
2023-03-12T09:38:31.991Z,12.07
2023-03-12T09:40:58.891Z,12.50
2023-03-12T09:43:26.596Z,12.57
2023-03-12T09:45:53.757Z,10.27
2023-03-12T09:48:29.195Z,10.47
2023-03-12T09:50:55.709Z,11.43
2023-03-12T09:53:37.712Z,14.67
2023-03-12T09:56:10.167Z,14.07
2023-03-12T09:58:38.469Z,9.83
2023-03-12T10:01:19.248Z,10.07
2023-03-12T10:04:14.509Z,10.27
2023-03-12T10:06:52.004Z,10.47
2023-03-12T10:09:44.895Z,9.17
2023-03-12T10:12:25.715Z,9.33
2023-03-12T10:15:15.254Z,7.50
2023-03-12T10:18:00.523Z,8.93
2023-03-12T10:20:26.986Z,8.30
2023-03-12T10:23:38.522Z,9.93
2023-03-12T10:26:19.435Z,6.43
2023-03-12T10:28:49.794Z,9.10
2023-03-12T10:31:21.862Z,6.07
2023-03-12T10:33:54.390Z,4.60
2023-03-12T10:36:24.216Z,4.60
2023-03-12T10:38:50.791Z,6.30
2023-03-12T10:41:25.703Z,5.40
2023-03-12T10:43:52.501Z,8.13
2023-03-12T10:46:31.256Z,5.37
2023-03-12T10:49:20.931Z,7.83
2023-03-12T10:51:59.474Z,7.73
2023-03-12T10:54:38.107Z,5.30
2023-03-12T10:57:05.130Z,5.30
2023-03-12T10:59:37.365Z,5.80
2023-03-12T11:02:30.815Z,5.33
2023-03-12T11:04:58.618Z,7.97
2023-03-12T11:07:27.762Z,6.27
2023-03-12T11:10:16.244Z,7.00
2023-03-12T11:12:56.680Z,3.33
2023-03-12T11:15:29.309Z,9.07
2023-03-12T11:18:26.859Z,7.13
2023-03-12T11:20:58.665Z,6.93
2023-03-12T11:23:30.223Z,6.90
2023-03-12T11:26:05.650Z,6.90
2023-03-12T11:28:44.437Z,6.23
2023-03-12T11:31:24.677Z,7.87
2023-03-12T11:33:52.467Z,5.80
2023-03-12T11:36:26.448Z,9.33
2023-03-12T11:39:15.637Z,4.87
2023-03-12T11:42:04.079Z,7.07
2023-03-12T11:44:41.490Z,5.93
2023-03-12T11:47:36.100Z,5.53
2023-03-12T11:50:25.268Z,5.67
2023-03-12T11:52:54.601Z,5.80
2023-03-12T11:55:45.860Z,6.37
2023-03-12T11:58:15.398Z,8.60
2023-03-12T12:00:51.170Z,5.37
2023-03-12T12:03:40.383Z,9.30
2023-03-12T12:06:42.909Z,7.77
2023-03-12T12:09:21.665Z,12.03
2023-03-12T12:12:29.421Z,10.03
2023-03-12T12:15:01.803Z,7.87
2023-03-12T12:17:40.242Z,7.97
2023-03-12T12:20:21.866Z,9.47
2023-03-12T12:22:59.762Z,7.77
2023-03-12T12:25:26.336Z,7.47
2023-03-12T12:28:11.855Z,9.43
2023-03-12T12:31:08.360Z,5.60
2023-03-12T12:33:37.896Z,9.10
2023-03-12T12:36:05.857Z,6.60
2023-03-12T12:38:42.011Z,8.43
2023-03-12T12:41:12.207Z,5.40
2023-03-12T12:43:40.878Z,9.07
2023-03-12T12:46:16.355Z,8.23
2023-03-12T12:48:53.148Z,5.70
2023-03-12T12:51:32.672Z,5.40
2023-03-12T12:54:05.213Z,7.83
2023-03-12T12:56:47.392Z,5.83
2023-03-12T12:59:31.903Z,5.70
2023-03-12T13:02:00.226Z,5.93
2023-03-12T13:04:35.495Z,5.70
2023-03-12T13:07:14.170Z,5.73
2023-03-12T13:09:50.540Z,5.67
2023-03-12T13:12:25.117Z,7.67
2023-03-12T13:14:52.932Z,7.97
2023-03-12T13:17:30.188Z,4.37
2023-03-12T13:20:11.281Z,9.47
2023-03-12T13:22:37.744Z,14.07
2023-03-12T13:25:21.717Z,9.43
2023-03-12T13:27:58.110Z,4.57
2023-03-12T13:30:49.102Z,6.03
2023-03-12T13:33:18.329Z,7.90
2023-03-12T13:36:02.964Z,5.53
2023-03-12T13:38:39.809Z,16.03
2023-03-12T13:41:07.106Z,6.90
2023-03-12T13:43:49.825Z,5.73
2023-03-12T13:46:16.285Z,7.37
2023-03-12T13:48:46.978Z,5.67
2023-03-12T13:51:18.938Z,8.20
2023-03-12T13:53:59.837Z,7.13
2023-03-12T13:56:29.193Z,5.90
2023-03-12T13:59:04.603Z,7.40
2023-03-12T14:01:43.929Z,5.37
2023-03-12T14:04:18.863Z,5.30
2023-03-12T14:07:15.548Z,5.17
2023-03-12T14:10:00.928Z,7.33
2023-03-12T14:12:44.497Z,7.17
2023-03-12T14:15:21.889Z,5.50
2023-03-12T14:17:56.207Z,5.67
2023-03-12T14:20:23.237Z,6.10
2023-03-12T14:23:00.849Z,5.60
2023-03-12T14:25:39.599Z,6.43
2023-03-12T14:28:26.333Z,6.60
2023-03-12T14:31:14.875Z,4.93
2023-03-12T14:34:05.409Z,7.40
2023-03-12T14:37:00.252Z,6.20
2023-03-12T14:39:36.367Z,5.40
2023-03-12T14:42:05.376Z,6.77
2023-03-12T14:44:33.454Z,5.83
2023-03-12T14:47:02.274Z,4.53
2023-03-12T14:49:30.018Z,5.77
2023-03-12T14:51:57.334Z,6.33
2023-03-12T14:54:27.195Z,4.00
2023-03-12T14:56:53.782Z,7.70
2023-03-12T14:59:31.086Z,6.10
2023-03-12T15:02:02.512Z,3.97
2023-03-12T15:04:30.031Z,5.53
2023-03-12T15:06:58.978Z,4.00
2023-03-12T15:09:28.256Z,6.97
2023-03-12T15:12:00.790Z,5.17
2023-03-12T15:14:29.532Z,5.03
2023-03-12T15:16:56.882Z,5.13
2023-03-12T15:19:29.196Z,7.80
2023-03-12T15:21:56.019Z,3.93
2023-03-12T15:24:22.635Z,7.47
2023-03-12T15:26:49.404Z,6.37
2023-03-12T15:29:30.431Z,6.20
2023-03-12T15:32:00.875Z,5.93
2023-03-12T15:34:32.923Z,7.33
2023-03-12T15:37:01.617Z,5.60
2023-03-12T15:39:32.258Z,5.10
2023-03-12T15:42:07.881Z,4.20
2023-03-12T15:44:45.569Z,5.30
2023-03-12T15:47:20.707Z,7.00
2023-03-12T15:49:55.439Z,5.27
2023-03-12T15:52:22.265Z,6.70
2023-03-12T15:55:26.022Z,5.80
2023-03-12T15:57:55.463Z,4.43
2023-03-12T16:00:39.120Z,6.07
2023-03-12T16:03:06.789Z,5.60
2023-03-12T16:05:35.848Z,6.33
2023-03-12T16:08:15.031Z,7.97
2023-03-12T16:10:41.741Z,6.43
2023-03-12T16:13:13.697Z,6.10
2023-03-12T16:15:40.740Z,6.00
2023-03-12T16:18:13.408Z,7.00
2023-03-12T16:20:39.948Z,7.10
2023-03-12T16:23:07.040Z,6.83
2023-03-12T16:25:33.784Z,5.43
2023-03-12T16:28:03.824Z,5.40
2023-03-12T16:30:35.439Z,5.90
2023-03-12T16:33:07.412Z,6.00
2023-03-12T16:35:35.222Z,7.17
2023-03-12T16:38:02.437Z,7.63
2023-03-12T16:40:33.715Z,7.30
2023-03-12T16:43:03.506Z,5.63
2023-03-12T16:45:31.507Z,5.23
2023-03-12T16:48:00.312Z,7.37
2023-03-12T16:50:27.120Z,7.13
2023-03-12T16:52:53.740Z,4.70
2023-03-12T16:55:21.808Z,14.83
2023-03-12T16:57:53.596Z,5.70
2023-03-12T17:00:25.012Z,5.93
2023-03-12T17:02:57.964Z,7.37
2023-03-12T17:05:25.826Z,6.67
2023-03-12T17:07:52.495Z,5.93
2023-03-12T17:10:19.285Z,5.90
2023-03-12T17:12:48.283Z,5.67
2023-03-12T17:15:18.313Z,5.50
2023-03-12T17:17:44.801Z,6.20
2023-03-12T17:20:14.529Z,5.80
2023-03-12T17:22:41.433Z,6.30
2023-03-12T17:25:10.866Z,6.60
2023-03-12T17:27:37.393Z,7.07
2023-03-12T17:30:04.212Z,6.83
2023-03-12T17:32:30.964Z,7.87
2023-03-12T17:34:59.950Z,7.90
2023-03-12T17:37:26.428Z,7.77
2023-03-12T17:39:53.069Z,8.07
2023-03-12T17:42:19.626Z,8.40
2023-03-12T17:44:46.159Z,10.80
2023-03-12T17:47:12.764Z,10.37
2023-03-12T17:49:39.618Z,10.33
2023-03-12T17:52:06.131Z,11.60
2023-03-12T17:54:32.573Z,11.40
2023-03-12T17:56:59.055Z,11.90
2023-03-12T17:59:25.495Z,11.93
2023-03-12T18:01:51.951Z,13.60
2023-03-12T18:04:18.585Z,13.90
2023-03-12T18:06:45.219Z,17.30
2023-03-12T18:09:11.654Z,17.43
2023-03-12T18:11:38.088Z,15.90
2023-03-12T18:14:04.870Z,14.53
2023-03-12T18:16:31.421Z,17.27
2023-03-12T18:18:57.962Z,17.67
2023-03-12T18:21:25.082Z,17.20
2023-03-12T18:23:51.642Z,15.47
2023-03-12T18:26:18.653Z,17.97
2023-03-12T18:28:45.199Z,14.97
2023-03-12T18:31:11.846Z,17.30
2023-03-12T18:33:38.996Z,17.00
2023-03-12T18:36:05.798Z,19.47
2023-03-12T18:38:32.776Z,16.23
2023-03-12T18:41:10.649Z,17.87
2023-03-12T18:43:37.193Z,23.20
2023-03-12T18:46:04.578Z,24.07
2023-03-12T18:48:31.590Z,19.53
2023-03-12T18:50:58.255Z,17.00
2023-03-12T18:53:24.754Z,18.47
2023-03-12T18:55:56.416Z,22.73
2023-03-12T18:58:24.230Z,20.17
2023-03-12T19:00:55.035Z,19.03
2023-03-12T19:03:22.953Z,21.17
2023-03-12T19:05:49.688Z,23.23
2023-03-12T19:08:16.288Z,21.20
2023-03-12T19:10:43.504Z,23.40
2023-03-12T19:13:10.478Z,24.33
2023-03-12T19:15:41.595Z,23.50
2023-03-12T19:18:08.186Z,26.20
2023-03-12T19:20:34.878Z,29.60
2023-03-12T19:23:01.416Z,28.70
2023-03-12T19:25:27.930Z,27.77
2023-03-12T19:27:54.446Z,31.10
2023-03-12T19:30:22.018Z,26.50
2023-03-12T19:32:48.502Z,28.57
2023-03-12T19:35:15.232Z,32.13
2023-03-12T19:37:42.354Z,30.93
2023-03-12T19:40:10.682Z,33.40
2023-03-12T19:42:37.216Z,37.33
2023-03-12T19:45:03.962Z,42.83
2023-03-12T19:47:33.131Z,39.37
2023-03-12T19:49:59.733Z,38.83
2023-03-12T19:52:26.220Z,43.23
2023-03-12T19:55:03.836Z,46.90
2023-03-12T19:57:31.595Z,42.40
2023-03-12T19:59:58.161Z,39.93
2023-03-12T20:02:24.789Z,46.87
2023-03-12T20:04:51.328Z,41.67
2023-03-12T20:07:18.448Z,43.47
2023-03-12T20:09:45.080Z,52.43
2023-03-12T20:12:11.522Z,46.27
2023-03-12T20:14:41.338Z,51.63
2023-03-12T20:17:08.995Z,43.17
2023-03-12T20:19:35.543Z,40.90
2023-03-12T20:22:02.366Z,52.80
2023-03-12T20:24:28.843Z,66.23
2023-03-12T20:26:55.325Z,48.57
2023-03-12T20:29:21.997Z,44.67
2023-03-12T20:31:48.464Z,58.97
2023-03-12T20:34:15.042Z,54.50
2023-03-12T20:36:41.602Z,47.80
2023-03-12T20:39:08.101Z,54.53
2023-03-12T20:41:34.640Z,58.33
2023-03-12T20:44:01.295Z,55.20
2023-03-12T20:46:27.903Z,54.37
2023-03-12T20:48:57.624Z,47.67
2023-03-12T20:51:24.873Z,56.00
2023-03-12T20:53:51.369Z,66.07
2023-03-12T20:56:17.834Z,50.33
2023-03-12T20:58:44.317Z,65.27
2023-03-12T21:01:10.819Z,54.17
2023-03-12T21:03:37.310Z,56.23
2023-03-12T21:06:04.062Z,55.23
2023-03-12T21:08:30.692Z,55.43
2023-03-12T21:10:57.203Z,52.27
2023-03-12T21:13:27.702Z,58.90
2023-03-12T21:15:54.314Z,61.37
2023-03-12T21:18:20.757Z,55.83
2023-03-12T21:20:49.523Z,59.73
2023-03-12T21:23:16.154Z,53.20
2023-03-12T21:25:42.669Z,53.53
2023-03-12T21:28:10.412Z,53.97
2023-03-12T21:30:37.552Z,58.13
2023-03-12T21:33:04.317Z,60.50
2023-03-12T21:35:30.915Z,72.57
2023-03-12T21:37:57.448Z,57.70
2023-03-12T21:40:24.129Z,59.03
2023-03-12T21:42:50.704Z,59.30
2023-03-12T21:45:17.360Z,62.83
2023-03-12T21:47:43.938Z,60.63
2023-03-12T21:50:11.121Z,59.10
2023-03-12T21:52:47.660Z,65.93
2023-03-12T21:55:14.581Z,58.00
2023-03-12T21:57:41.253Z,50.53
2023-03-12T22:00:12.584Z,55.40
2023-03-12T22:02:40.975Z,52.20
2023-03-12T22:05:08.587Z,51.20
2023-03-12T22:07:35.132Z,51.90
2023-03-12T22:10:01.690Z,53.30
2023-03-12T22:12:28.138Z,60.63
2023-03-12T22:14:54.614Z,46.70
2023-03-12T22:17:21.199Z,52.47
2023-03-12T22:19:47.728Z,53.37
2023-03-12T22:22:14.179Z,54.37
2023-03-12T22:24:40.829Z,50.03
2023-03-12T22:27:07.419Z,50.10
2023-03-12T22:29:34.785Z,40.23
2023-03-12T22:32:01.366Z,48.30
2023-03-12T22:34:29.614Z,48.83
2023-03-12T22:36:56.193Z,51.10
2023-03-12T22:39:22.684Z,53.70
2023-03-12T22:41:52.723Z,43.20
2023-03-12T22:44:19.460Z,51.57
2023-03-12T22:46:45.977Z,43.23
2023-03-12T22:49:12.551Z,46.30
2023-03-12T22:51:39.092Z,40.50
2023-03-12T22:54:05.811Z,44.53
2023-03-12T22:56:32.337Z,47.10
2023-03-12T22:58:59.052Z,46.17
2023-03-12T23:01:25.874Z,50.77
2023-03-12T23:03:52.611Z,49.97
2023-03-12T23:06:21.476Z,46.10
2023-03-12T23:08:48.620Z,48.30
2023-03-12T23:11:16.260Z,41.73
2023-03-12T23:13:44.619Z,39.93
2023-03-12T23:16:17.252Z,43.83
2023-03-12T23:18:44.489Z,53.10
2023-03-12T23:21:14.102Z,47.30
2023-03-12T23:23:42.198Z,47.43
2023-03-12T23:26:17.288Z,45.60
2023-03-12T23:28:43.837Z,38.80
2023-03-12T23:31:10.888Z,45.13
2023-03-12T23:33:37.794Z,45.87
2023-03-12T23:36:13.000Z,44.87
2023-03-12T23:38:39.955Z,39.43
2023-03-12T23:41:07.581Z,40.23
2023-03-12T23:43:34.546Z,38.27
2023-03-12T23:46:02.562Z,33.23
2023-03-12T23:48:30.211Z,38.83
2023-03-12T23:51:14.551Z,38.23
2023-03-12T23:53:43.794Z,36.40
2023-03-12T23:56:13.187Z,34.03
2023-03-12T23:58:39.675Z,40.63
